SHH1236 MDLR-MUCC
Flight info
| Callsign | SHH1236 |
|---|---|
| Flight time | N/A |
| Altitude | 34000 |
| Route | KERSO2M KERSO DCT PTA/N0382F180 M348 RETAK/N0419F240 M348 ALBBE/N0465F340 M348 MEDKO/N0420F240 M348 BINSU M218 ENAMO RESEB2 |
| Aircraft | E190/M-SDE3GILORVW/S |
Departure
| Time | 2026-05-04 11:46 |
|---|---|
| Airport | Casa De Campo International Airport (MDLR) |
Arrival
| Time | N/A |
|---|---|
| Airport | Jardines Del Rey Airport (MUCC) |
| Time | Latitude | Longitude | Altitude | Speed | Heading |
|---|---|---|---|---|---|
| 2026-05-04 11:10 | 18.44925 | -68.91204 | 186 ft | 0 kts | 188° |
| 2026-05-04 11:35 | 18.44948 | -68.91200 | 221 ft | 4 kts | 190° |
| 2026-05-04 11:35 | 18.44975 | -68.91195 | 219 ft | 4 kts | 187° |
| 2026-05-04 11:35 | 18.45002 | -68.91194 | 220 ft | 4 kts | 162° |
| 2026-05-04 11:36 | 18.45015 | -68.91202 | 221 ft | 0 kts | 98° |
| 2026-05-04 11:38 | 18.45015 | -68.91201 | 219 ft | 1 kts | 98° |
| 2026-05-04 11:38 | 18.45015 | -68.91194 | 219 ft | 1 kts | 87° |
| 2026-05-04 11:38 | 18.45017 | -68.91186 | 220 ft | 2 kts | 77° |
| 2026-05-04 11:38 | 18.45025 | -68.91174 | 220 ft | 2 kts | 49° |
| 2026-05-04 11:39 | 18.45051 | -68.91162 | 219 ft | 4 kts | 17° |
| 2026-05-04 11:39 | 18.45070 | -68.91158 | 219 ft | 5 kts | 7° |
| 2026-05-04 11:40 | 18.45243 | -68.91100 | 221 ft | 6 kts | 84° |
| 2026-05-04 11:41 | 18.45238 | -68.91049 | 221 ft | 8 kts | 96° |
| 2026-05-04 11:41 | 18.45231 | -68.90982 | 221 ft | 10 kts | 96° |
| 2026-05-04 11:41 | 18.45221 | -68.90902 | 220 ft | 12 kts | 97° |
| 2026-05-04 11:41 | 18.45210 | -68.90815 | 221 ft | 12 kts | 97° |
| 2026-05-04 11:42 | 18.45200 | -68.90727 | 221 ft | 13 kts | 97° |
| 2026-05-04 11:42 | 18.45188 | -68.90630 | 221 ft | 14 kts | 97° |
| 2026-05-04 11:42 | 18.45176 | -68.90522 | 220 ft | 16 kts | 97° |
| 2026-05-04 11:42 | 18.45162 | -68.90404 | 220 ft | 17 kts | 97° |
| 2026-05-04 11:43 | 18.45147 | -68.90277 | 218 ft | 18 kts | 97° |
| 2026-05-04 11:43 | 18.45131 | -68.90137 | 216 ft | 19 kts | 99° |
| 2026-05-04 11:43 | 18.45122 | -68.90057 | 217 ft | 7 kts | 98° |
| 2026-05-04 11:43 | 18.45114 | -68.90002 | 222 ft | 8 kts | 98° |
| 2026-05-04 11:44 | 18.45107 | -68.89945 | 218 ft | 8 kts | 97° |
| 2026-05-04 11:44 | 18.45099 | -68.89883 | 219 ft | 9 kts | 97° |
| 2026-05-04 11:44 | 18.45069 | -68.89825 | 218 ft | 10 kts | 133° |
| 2026-05-04 11:44 | 18.45081 | -68.89784 | 221 ft | 6 kts | 345° |
| 2026-05-04 11:45 | 18.45090 | -68.89804 | 220 ft | 3 kts | 284° |
| 2026-05-04 11:45 | 18.45100 | -68.89878 | 219 ft | 35 kts | 277° |
| 2026-05-04 11:45 | 18.45161 | -68.90388 | 220 ft | 104 kts | 277° |
| 2026-05-04 11:45 | 18.45275 | -68.91370 | 239 ft | 162 kts | 277° |
| 2026-05-04 11:46 | 18.45408 | -68.92570 | 869 ft | 171 kts | 276° |
| 2026-05-04 11:46 | 18.45546 | -68.93868 | 1400 ft | 193 kts | 276° |
| 2026-05-04 11:46 | 18.45740 | -68.95428 | 1725 ft | 227 kts | 277° |
| 2026-05-04 11:46 | 18.45944 | -68.97111 | 2649 ft | 234 kts | 276° |